createdAt,value
2018-02-05T00:00:05.345Z,5.9
2018-02-05T00:15:08.002Z,5.9
2018-02-05T00:30:05.336Z,5.7
2018-02-05T00:45:05.774Z,5.5
2018-02-05T01:00:05.268Z,5.5
2018-02-05T01:15:05.310Z,5.5
2018-02-05T01:30:07.873Z,5.4
2018-02-05T01:45:05.933Z,5.3
2018-02-05T02:00:05.028Z,5.3
2018-02-05T02:15:05.106Z,5.3
2018-02-05T02:30:05.634Z,5.2
2018-02-05T02:45:04.987Z,5.1
2018-02-05T03:00:05.068Z,5
2018-02-05T03:15:05.180Z,4.7
2018-02-05T03:30:04.355Z,4.6
2018-02-05T03:45:05.058Z,4.5
2018-02-05T04:00:06.067Z,4.6
2018-02-05T04:15:11.990Z,4.4
2018-02-05T04:30:05.704Z,4.2
2018-02-05T04:45:06.336Z,4.3
2018-02-05T05:00:07.349Z,4.2
2018-02-05T05:15:05.627Z,4.3
2018-02-05T05:30:04.463Z,4.3
2018-02-05T05:45:05.185Z,4.2
2018-02-05T06:00:04.758Z,4.1
2018-02-05T06:15:04.783Z,4.2
2018-02-05T06:30:04.974Z,4.2
2018-02-05T06:45:06.170Z,4
2018-02-05T07:00:05.825Z,4.1
2018-02-05T07:15:04.585Z,4.1
2018-02-05T07:30:04.945Z,4.1
2018-02-05T07:45:08.128Z,4.2
2018-02-05T08:00:05.580Z,4.4
2018-02-05T08:15:06.272Z,4.6
2018-02-05T08:30:05.112Z,5
2018-02-05T08:45:05.478Z,4.8
2018-02-05T09:00:05.410Z,4.8
2018-02-05T09:15:05.091Z,4.8
2018-02-05T09:30:04.251Z,5
2018-02-05T09:45:05.053Z,5.1
2018-02-05T10:00:04.524Z,5
2018-02-05T10:15:04.538Z,5.3
2018-02-05T10:30:04.936Z,5.5
2018-02-05T10:45:04.435Z,5.7
2018-02-05T11:00:04.601Z,6.1
2018-02-05T11:15:04.651Z,6.6
2018-02-05T11:30:04.356Z,6.6
2018-02-05T11:45:05.571Z,6.6
2018-02-05T12:00:12.203Z,6.8
2018-02-05T12:15:05.814Z,6.9
2018-02-05T12:30:05.385Z,6.8
2018-02-05T12:45:04.920Z,7
2018-02-05T13:00:05.838Z,6.9
2018-02-05T13:15:07.896Z,6.7
2018-02-05T13:30:06.019Z,6.5
2018-02-05T13:45:04.779Z,6.4
2018-02-05T14:00:04.818Z,6.1
2018-02-05T14:15:08.049Z,6
2018-02-05T14:30:11.676Z,6.1
2018-02-05T14:45:04.747Z,6
2018-02-05T15:00:05.878Z,6
2018-02-05T15:15:04.930Z,6.1
2018-02-05T15:30:11.964Z,3.1
2018-02-05T15:45:04.572Z,6.1
2018-02-05T16:00:04.583Z,6.1
2018-02-05T16:15:04.808Z,5.9
2018-02-05T16:30:05.237Z,5.7
2018-02-05T16:45:04.795Z,5.6
2018-02-05T17:00:04.995Z,5.4
2018-02-05T17:15:12.018Z,5.3
2018-02-05T17:30:04.766Z,5.1
2018-02-05T17:45:04.884Z,5.2
2018-02-05T18:00:04.812Z,5.1
2018-02-05T18:15:04.199Z,5.2
2018-02-05T18:30:04.889Z,5
2018-02-05T18:45:05.415Z,4.9
2018-02-05T19:00:04.389Z,4.9
2018-02-05T19:15:04.834Z,4.8
2018-02-05T19:30:11.495Z,4.7
2018-02-05T19:45:04.398Z,4.6
2018-02-05T20:00:11.992Z,4.6
2018-02-05T20:15:04.456Z,4.6
2018-02-05T20:30:05.146Z,4.6
2018-02-05T20:45:05.046Z,4.4
2018-02-05T21:00:04.485Z,4.3
2018-02-05T21:15:05.381Z,4.2
2018-02-05T21:30:05.462Z,4.2
2018-02-05T21:45:04.659Z,4.1
2018-02-05T22:00:04.771Z,4.2
2018-02-05T22:15:04.647Z,4.3
2018-02-05T22:30:04.320Z,4.3
2018-02-05T22:45:08.416Z,4.3
2018-02-05T23:00:04.356Z,4.1
2018-02-05T23:15:05.304Z,4
2018-02-05T23:30:05.500Z,3.9
2018-02-05T23:45:05.132Z,3.8
